sensor_id;sensor_type;location;lat;lon;timestamp;P1;durP1;ratioP1;P2;durP2;ratioP2
64936;SDS011;51452;47.698;19.050;2022-07-29T00:00:08;3.25;;;2.10;;
64936;SDS011;51452;47.698;19.050;2022-07-29T00:02:35;8.02;;;2.90;;
64936;SDS011;51452;47.698;19.050;2022-07-29T00:05:00;3.28;;;2.20;;
64936;SDS011;51452;47.698;19.050;2022-07-29T00:07:26;3.20;;;2.20;;
64936;SDS011;51452;47.698;19.050;2022-07-29T00:09:51;4.05;;;2.35;;
64936;SDS011;51452;47.698;19.050;2022-07-29T00:12:17;3.95;;;2.20;;
64936;SDS011;51452;47.698;19.050;2022-07-29T00:14:43;5.38;;;2.30;;
64936;SDS011;51452;47.698;19.050;2022-07-29T00:17:08;6.55;;;2.30;;
64936;SDS011;51452;47.698;19.050;2022-07-29T00:19:34;4.85;;;2.80;;
64936;SDS011;51452;47.698;19.050;2022-07-29T00:22:00;8.63;;;2.60;;
64936;SDS011;51452;47.698;19.050;2022-07-29T00:24:26;2.65;;;2.30;;
64936;SDS011;51452;47.698;19.050;2022-07-29T00:26:51;7.63;;;2.42;;
64936;SDS011;51452;47.698;19.050;2022-07-29T00:29:17;3.13;;;2.05;;
64936;SDS011;51452;47.698;19.050;2022-07-29T00:31:42;4.05;;;2.22;;
64936;SDS011;51452;47.698;19.050;2022-07-29T00:34:08;3.42;;;2.22;;
64936;SDS011;51452;47.698;19.050;2022-07-29T00:36:53;2.95;;;2.28;;
64936;SDS011;51452;47.698;19.050;2022-07-29T00:39:18;3.80;;;2.45;;
64936;SDS011;51452;47.698;19.050;2022-07-29T00:41:44;5.68;;;2.40;;
64936;SDS011;51452;47.698;19.050;2022-07-29T00:44:09;6.05;;;2.33;;
64936;SDS011;51452;47.698;19.050;2022-07-29T00:46:34;7.50;;;2.22;;
64936;SDS011;51452;47.698;19.050;2022-07-29T00:49:00;3.80;;;2.47;;
64936;SDS011;51452;47.698;19.050;2022-07-29T00:51:26;6.03;;;2.55;;
64936;SDS011;51452;47.698;19.050;2022-07-29T00:53:52;3.35;;;2.42;;
64936;SDS011;51452;47.698;19.050;2022-07-29T00:56:18;3.63;;;2.30;;
64936;SDS011;51452;47.698;19.050;2022-07-29T00:58:43;3.05;;;2.13;;
64936;SDS011;51452;47.698;19.050;2022-07-29T01:01:11;3.28;;;2.58;;
64936;SDS011;51452;47.698;19.050;2022-07-29T01:03:37;2.75;;;2.33;;
64936;SDS011;51452;47.698;19.050;2022-07-29T01:06:02;3.88;;;2.03;;
64936;SDS011;51452;47.698;19.050;2022-07-29T01:08:28;4.25;;;2.50;;
64936;SDS011;51452;47.698;19.050;2022-07-29T01:10:55;5.75;;;2.35;;
64936;SDS011;51452;47.698;19.050;2022-07-29T01:13:21;4.65;;;2.67;;
64936;SDS011;51452;47.698;19.050;2022-07-29T01:15:48;4.45;;;2.28;;
64936;SDS011;51452;47.698;19.050;2022-07-29T01:18:22;7.22;;;2.85;;
64936;SDS011;51452;47.698;19.050;2022-07-29T01:23:42;6.20;;;2.53;;
64936;SDS011;51452;47.698;19.050;2022-07-29T01:31:47;4.03;;;2.50;;
64936;SDS011;51452;47.698;19.050;2022-07-29T01:34:25;3.67;;;2.50;;
64936;SDS011;51452;47.698;19.050;2022-07-29T01:37:06;6.82;;;2.90;;
64936;SDS011;51452;47.698;19.050;2022-07-29T01:39:40;4.18;;;2.30;;
64936;SDS011;51452;47.698;19.050;2022-07-29T01:45:08;5.53;;;2.75;;
64936;SDS011;51452;47.698;19.050;2022-07-29T01:47:46;4.40;;;2.45;;
64936;SDS011;51452;47.698;19.050;2022-07-29T01:50:33;3.72;;;2.50;;
64936;SDS011;51452;47.698;19.050;2022-07-29T01:53:00;5.07;;;2.80;;
64936;SDS011;51452;47.698;19.050;2022-07-29T01:55:35;5.97;;;3.03;;
64936;SDS011;51452;47.698;19.050;2022-07-29T01:58:04;5.20;;;2.80;;
64936;SDS011;51452;47.698;19.050;2022-07-29T02:00:31;5.22;;;2.88;;
64936;SDS011;51452;47.698;19.050;2022-07-29T02:02:58;5.32;;;2.65;;
64936;SDS011;51452;47.698;19.050;2022-07-29T02:05:27;5.32;;;2.90;;
64936;SDS011;51452;47.698;19.050;2022-07-29T02:07:53;5.35;;;2.90;;
64936;SDS011;51452;47.698;19.050;2022-07-29T02:10:24;4.07;;;2.78;;
64936;SDS011;51452;47.698;19.050;2022-07-29T02:12:55;7.07;;;3.20;;
64936;SDS011;51452;47.698;19.050;2022-07-29T02:15:23;10.88;;;3.42;;
64936;SDS011;51452;47.698;19.050;2022-07-29T02:17:57;5.95;;;3.38;;
64936;SDS011;51452;47.698;19.050;2022-07-29T02:20:26;6.97;;;3.13;;
64936;SDS011;51452;47.698;19.050;2022-07-29T02:22:52;5.18;;;3.33;;
64936;SDS011;51452;47.698;19.050;2022-07-29T02:25:19;4.45;;;3.05;;
64936;SDS011;51452;47.698;19.050;2022-07-29T02:27:47;5.03;;;3.30;;
64936;SDS011;51452;47.698;19.050;2022-07-29T02:30:15;6.65;;;3.17;;
64936;SDS011;51452;47.698;19.050;2022-07-29T02:32:42;5.45;;;3.22;;
64936;SDS011;51452;47.698;19.050;2022-07-29T02:35:10;7.75;;;3.30;;
64936;SDS011;51452;47.698;19.050;2022-07-29T02:37:38;7.25;;;3.47;;
64936;SDS011;51452;47.698;19.050;2022-07-29T02:40:05;7.22;;;3.53;;
64936;SDS011;51452;47.698;19.050;2022-07-29T02:42:36;12.35;;;3.92;;
64936;SDS011;51452;47.698;19.050;2022-07-29T02:45:04;6.57;;;3.50;;
64936;SDS011;51452;47.698;19.050;2022-07-29T02:47:33;8.23;;;3.80;;
64936;SDS011;51452;47.698;19.050;2022-07-29T02:52:52;6.72;;;3.67;;
64936;SDS011;51452;47.698;19.050;2022-07-29T02:55:26;6.13;;;3.35;;
64936;SDS011;51452;47.698;19.050;2022-07-29T03:00:48;8.07;;;3.55;;
64936;SDS011;51452;47.698;19.050;2022-07-29T03:03:15;4.50;;;3.38;;
64936;SDS011;51452;47.698;19.050;2022-07-29T03:05:42;5.13;;;3.38;;
64936;SDS011;51452;47.698;19.050;2022-07-29T03:08:09;6.07;;;3.40;;
64936;SDS011;51452;47.698;19.050;2022-07-29T03:10:36;4.38;;;3.30;;
64936;SDS011;51452;47.698;19.050;2022-07-29T03:13:03;9.50;;;3.17;;
64936;SDS011;51452;47.698;19.050;2022-07-29T03:15:30;6.10;;;3.63;;
64936;SDS011;51452;47.698;19.050;2022-07-29T03:17:56;6.57;;;3.60;;
64936;SDS011;51452;47.698;19.050;2022-07-29T03:20:22;7.97;;;3.47;;
64936;SDS011;51452;47.698;19.050;2022-07-29T03:22:48;8.20;;;3.58;;
64936;SDS011;51452;47.698;19.050;2022-07-29T03:25:15;4.68;;;3.38;;
64936;SDS011;51452;47.698;19.050;2022-07-29T03:27:42;5.97;;;3.90;;
64936;SDS011;51452;47.698;19.050;2022-07-29T03:30:08;5.15;;;3.47;;
64936;SDS011;51452;47.698;19.050;2022-07-29T03:32:35;7.50;;;3.05;;
64936;SDS011;51452;47.698;19.050;2022-07-29T03:35:01;5.32;;;3.35;;
64936;SDS011;51452;47.698;19.050;2022-07-29T03:37:27;4.78;;;3.00;;
64936;SDS011;51452;47.698;19.050;2022-07-29T03:39:52;4.30;;;3.25;;
64936;SDS011;51452;47.698;19.050;2022-07-29T03:42:21;7.25;;;3.65;;
64936;SDS011;51452;47.698;19.050;2022-07-29T03:44:50;6.20;;;3.60;;
64936;SDS011;51452;47.698;19.050;2022-07-29T03:47:18;4.68;;;3.22;;
64936;SDS011;51452;47.698;19.050;2022-07-29T03:49:50;4.35;;;3.13;;
64936;SDS011;51452;47.698;19.050;2022-07-29T03:52:17;5.28;;;3.50;;
64936;SDS011;51452;47.698;19.050;2022-07-29T03:54:43;9.32;;;3.60;;
64936;SDS011;51452;47.698;19.050;2022-07-29T03:57:09;4.03;;;3.22;;
64936;SDS011;51452;47.698;19.050;2022-07-29T03:59:36;3.92;;;3.38;;
64936;SDS011;51452;47.698;19.050;2022-07-29T04:02:03;4.68;;;3.30;;
64936;SDS011;51452;47.698;19.050;2022-07-29T04:04:32;6.75;;;4.20;;
64936;SDS011;51452;47.698;19.050;2022-07-29T04:06:58;6.50;;;3.53;;
64936;SDS011;51452;47.698;19.050;2022-07-29T04:09:24;7.22;;;4.03;;
64936;SDS011;51452;47.698;19.050;2022-07-29T04:11:49;8.55;;;3.60;;
64936;SDS011;51452;47.698;19.050;2022-07-29T04:14:15;6.60;;;3.65;;
64936;SDS011;51452;47.698;19.050;2022-07-29T04:16:40;6.97;;;4.00;;
64936;SDS011;51452;47.698;19.050;2022-07-29T04:19:05;6.13;;;3.78;;
64936;SDS011;51452;47.698;19.050;2022-07-29T04:21:31;7.43;;;3.88;;
64936;SDS011;51452;47.698;19.050;2022-07-29T04:24:02;4.60;;;3.28;;
64936;SDS011;51452;47.698;19.050;2022-07-29T04:26:27;6.38;;;3.75;;
64936;SDS011;51452;47.698;19.050;2022-07-29T04:28:52;6.45;;;3.40;;
64936;SDS011;51452;47.698;19.050;2022-07-29T04:31:18;5.13;;;3.65;;
64936;SDS011;51452;47.698;19.050;2022-07-29T04:33:43;4.40;;;3.47;;
64936;SDS011;51452;47.698;19.050;2022-07-29T04:36:09;4.95;;;3.40;;
64936;SDS011;51452;47.698;19.050;2022-07-29T04:38:36;6.45;;;3.60;;
64936;SDS011;51452;47.698;19.050;2022-07-29T04:41:01;4.45;;;3.45;;
64936;SDS011;51452;47.698;19.050;2022-07-29T04:43:27;6.75;;;3.30;;
64936;SDS011;51452;47.698;19.050;2022-07-29T04:45:52;4.28;;;3.22;;
64936;SDS011;51452;47.698;19.050;2022-07-29T04:48:18;4.85;;;3.53;;
64936;SDS011;51452;47.698;19.050;2022-07-29T04:50:43;5.28;;;3.47;;
64936;SDS011;51452;47.698;19.050;2022-07-29T04:53:09;5.65;;;3.40;;
64936;SDS011;51452;47.698;19.050;2022-07-29T04:55:34;6.13;;;3.47;;
64936;SDS011;51452;47.698;19.050;2022-07-29T04:58:01;4.90;;;3.53;;
64936;SDS011;51452;47.698;19.050;2022-07-29T05:00:26;6.47;;;3.85;;
64936;SDS011;51452;47.698;19.050;2022-07-29T05:02:52;6.80;;;3.28;;
64936;SDS011;51452;47.698;19.050;2022-07-29T05:05:17;4.82;;;3.10;;
64936;SDS011;51452;47.698;19.050;2022-07-29T05:07:43;4.07;;;3.40;;
64936;SDS011;51452;47.698;19.050;2022-07-29T05:10:08;4.70;;;3.50;;
64936;SDS011;51452;47.698;19.050;2022-07-29T05:12:34;6.18;;;3.65;;
64936;SDS011;51452;47.698;19.050;2022-07-29T05:14:59;5.20;;;3.67;;
64936;SDS011;51452;47.698;19.050;2022-07-29T05:17:25;7.95;;;3.45;;
64936;SDS011;51452;47.698;19.050;2022-07-29T05:19:50;6.35;;;3.70;;
64936;SDS011;51452;47.698;19.050;2022-07-29T05:22:17;5.15;;;3.90;;
64936;SDS011;51452;47.698;19.050;2022-07-29T05:24:45;4.28;;;3.50;;
64936;SDS011;51452;47.698;19.050;2022-07-29T05:27:11;6.45;;;3.90;;
64936;SDS011;51452;47.698;19.050;2022-07-29T05:29:37;5.15;;;3.70;;
64936;SDS011;51452;47.698;19.050;2022-07-29T05:32:03;6.18;;;3.47;;
64936;SDS011;51452;47.698;19.050;2022-07-29T05:34:29;7.70;;;4.35;;
64936;SDS011;51452;47.698;19.050;2022-07-29T05:36:55;5.50;;;3.33;;
64936;SDS011;51452;47.698;19.050;2022-07-29T05:39:21;6.55;;;3.90;;
64936;SDS011;51452;47.698;19.050;2022-07-29T05:41:47;5.38;;;3.50;;
64936;SDS011;51452;47.698;19.050;2022-07-29T05:44:12;6.93;;;3.63;;
64936;SDS011;51452;47.698;19.050;2022-07-29T05:46:38;10.02;;;3.33;;
64936;SDS011;51452;47.698;19.050;2022-07-29T05:49:04;12.05;;;3.42;;
64936;SDS011;51452;47.698;19.050;2022-07-29T05:51:31;6.13;;;3.67;;
64936;SDS011;51452;47.698;19.050;2022-07-29T05:53:58;8.90;;;3.88;;
64936;SDS011;51452;47.698;19.050;2022-07-29T05:56:23;8.15;;;3.40;;
64936;SDS011;51452;47.698;19.050;2022-07-29T05:58:49;6.55;;;3.50;;
64936;SDS011;51452;47.698;19.050;2022-07-29T06:01:15;5.35;;;3.33;;
64936;SDS011;51452;47.698;19.050;2022-07-29T06:03:41;6.60;;;3.55;;
64936;SDS011;51452;47.698;19.050;2022-07-29T06:06:06;4.95;;;3.53;;
64936;SDS011;51452;47.698;19.050;2022-07-29T06:08:32;6.15;;;3.40;;
64936;SDS011;51452;47.698;19.050;2022-07-29T06:10:58;5.90;;;3.55;;
64936;SDS011;51452;47.698;19.050;2022-07-29T06:13:27;5.50;;;3.45;;
64936;SDS011;51452;47.698;19.050;2022-07-29T06:15:52;10.00;;;3.80;;
64936;SDS011;51452;47.698;19.050;2022-07-29T06:18:18;5.20;;;3.53;;
64936;SDS011;51452;47.698;19.050;2022-07-29T06:20:45;7.55;;;3.25;;
64936;SDS011;51452;47.698;19.050;2022-07-29T06:29:57;5.78;;;3.50;;
64936;SDS011;51452;47.698;19.050;2022-07-29T06:32:22;9.60;;;3.63;;
64936;SDS011;51452;47.698;19.050;2022-07-29T06:34:47;6.75;;;3.38;;
64936;SDS011;51452;47.698;19.050;2022-07-29T06:37:13;4.40;;;3.30;;
64936;SDS011;51452;47.698;19.050;2022-07-29T06:39:39;5.45;;;3.50;;
64936;SDS011;51452;47.698;19.050;2022-07-29T06:42:04;3.63;;;3.20;;
64936;SDS011;51452;47.698;19.050;2022-07-29T06:44:30;5.07;;;3.30;;
64936;SDS011;51452;47.698;19.050;2022-07-29T06:46:56;5.57;;;3.20;;
64936;SDS011;51452;47.698;19.050;2022-07-29T06:49:21;4.88;;;3.50;;
64936;SDS011;51452;47.698;19.050;2022-07-29T06:51:48;5.93;;;3.38;;
64936;SDS011;51452;47.698;19.050;2022-07-29T06:54:13;5.53;;;3.30;;
64936;SDS011;51452;47.698;19.050;2022-07-29T06:56:39;5.70;;;3.35;;
64936;SDS011;51452;47.698;19.050;2022-07-29T06:59:10;4.65;;;3.20;;
64936;SDS011;51452;47.698;19.050;2022-07-29T07:01:36;3.92;;;3.28;;
64936;SDS011;51452;47.698;19.050;2022-07-29T07:04:03;8.70;;;3.30;;
64936;SDS011;51452;47.698;19.050;2022-07-29T07:06:28;6.95;;;3.85;;
64936;SDS011;51452;47.698;19.050;2022-07-29T07:08:54;4.07;;;3.33;;
64936;SDS011;51452;47.698;19.050;2022-07-29T07:11:19;5.28;;;3.13;;
64936;SDS011;51452;47.698;19.050;2022-07-29T07:13:45;4.93;;;3.50;;
64936;SDS011;51452;47.698;19.050;2022-07-29T07:16:10;7.70;;;3.67;;
64936;SDS011;51452;47.698;19.050;2022-07-29T07:18:35;5.03;;;3.30;;
64936;SDS011;51452;47.698;19.050;2022-07-29T07:21:01;5.35;;;3.00;;
64936;SDS011;51452;47.698;19.050;2022-07-29T07:23:26;4.93;;;3.10;;
64936;SDS011;51452;47.698;19.050;2022-07-29T07:25:51;5.68;;;3.40;;
64936;SDS011;51452;47.698;19.050;2022-07-29T07:28:17;5.65;;;3.08;;
64936;SDS011;51452;47.698;19.050;2022-07-29T07:30:42;4.07;;;3.17;;
64936;SDS011;51452;47.698;19.050;2022-07-29T07:33:09;8.68;;;3.60;;
64936;SDS011;51452;47.698;19.050;2022-07-29T07:35:34;6.68;;;3.08;;
64936;SDS011;51452;47.698;19.050;2022-07-29T07:38:00;7.90;;;3.33;;
64936;SDS011;51452;47.698;19.050;2022-07-29T07:40:25;7.20;;;3.40;;
64936;SDS011;51452;47.698;19.050;2022-07-29T07:42:51;9.60;;;3.40;;
64936;SDS011;51452;47.698;19.050;2022-07-29T07:45:16;4.82;;;3.30;;
64936;SDS011;51452;47.698;19.050;2022-07-29T07:47:42;6.70;;;3.10;;
64936;SDS011;51452;47.698;19.050;2022-07-29T07:50:08;6.53;;;3.50;;
64936;SDS011;51452;47.698;19.050;2022-07-29T07:52:45;5.40;;;3.15;;
64936;SDS011;51452;47.698;19.050;2022-07-29T07:55:14;5.05;;;3.10;;
64936;SDS011;51452;47.698;19.050;2022-07-29T07:57:40;4.78;;;3.17;;
64936;SDS011;51452;47.698;19.050;2022-07-29T08:00:06;6.13;;;3.25;;
64936;SDS011;51452;47.698;19.050;2022-07-29T08:02:31;4.10;;;3.00;;
64936;SDS011;51452;47.698;19.050;2022-07-29T08:04:57;6.15;;;3.38;;
64936;SDS011;51452;47.698;19.050;2022-07-29T08:07:22;5.53;;;3.80;;
64936;SDS011;51452;47.698;19.050;2022-07-29T08:09:48;8.88;;;3.30;;
64936;SDS011;51452;47.698;19.050;2022-07-29T08:12:13;6.45;;;3.00;;
64936;SDS011;51452;47.698;19.050;2022-07-29T08:14:38;6.57;;;3.22;;
64936;SDS011;51452;47.698;19.050;2022-07-29T08:17:04;4.30;;;3.17;;
64936;SDS011;51452;47.698;19.050;2022-07-29T08:19:29;3.65;;;2.83;;
64936;SDS011;51452;47.698;19.050;2022-07-29T08:21:55;4.78;;;3.33;;
64936;SDS011;51452;47.698;19.050;2022-07-29T08:24:21;9.90;;;3.13;;
64936;SDS011;51452;47.698;19.050;2022-07-29T08:27:05;9.55;;;3.90;;
64936;SDS011;51452;47.698;19.050;2022-07-29T08:29:31;8.65;;;3.50;;
64936;SDS011;51452;47.698;19.050;2022-07-29T08:31:56;7.72;;;3.08;;
64936;SDS011;51452;47.698;19.050;2022-07-29T08:34:21;6.75;;;3.38;;
64936;SDS011;51452;47.698;19.050;2022-07-29T08:36:47;5.60;;;3.80;;
64936;SDS011;51452;47.698;19.050;2022-07-29T08:39:12;4.05;;;3.63;;
64936;SDS011;51452;47.698;19.050;2022-07-29T08:41:37;6.40;;;2.90;;
64936;SDS011;51452;47.698;19.050;2022-07-29T08:44:03;9.00;;;3.10;;
64936;SDS011;51452;47.698;19.050;2022-07-29T08:46:29;8.88;;;3.22;;
64936;SDS011;51452;47.698;19.050;2022-07-29T08:48:54;5.72;;;3.10;;
64936;SDS011;51452;47.698;19.050;2022-07-29T08:51:20;5.70;;;3.25;;
64936;SDS011;51452;47.698;19.050;2022-07-29T08:53:47;4.47;;;3.35;;
64936;SDS011;51452;47.698;19.050;2022-07-29T08:56:14;7.25;;;3.25;;
64936;SDS011;51452;47.698;19.050;2022-07-29T08:58:44;7.80;;;3.30;;
64936;SDS011;51452;47.698;19.050;2022-07-29T09:01:11;5.20;;;3.25;;
64936;SDS011;51452;47.698;19.050;2022-07-29T09:03:39;6.60;;;3.30;;
64936;SDS011;51452;47.698;19.050;2022-07-29T09:06:05;5.97;;;3.00;;
64936;SDS011;51452;47.698;19.050;2022-07-29T09:08:31;3.95;;;2.95;;
64936;SDS011;51452;47.698;19.050;2022-07-29T09:10:57;8.23;;;3.03;;
64936;SDS011;51452;47.698;19.050;2022-07-29T09:13:25;5.28;;;3.05;;
64936;SDS011;51452;47.698;19.050;2022-07-29T09:15:50;5.15;;;2.88;;
64936;SDS011;51452;47.698;19.050;2022-07-29T09:21:03;4.28;;;3.30;;
64936;SDS011;51452;47.698;19.050;2022-07-29T09:23:59;5.63;;;2.95;;
64936;SDS011;51452;47.698;19.050;2022-07-29T09:26:32;5.88;;;2.78;;
64936;SDS011;51452;47.698;19.050;2022-07-29T09:28:59;3.95;;;2.72;;
64936;SDS011;51452;47.698;19.050;2022-07-29T09:31:31;5.30;;;2.63;;
64936;SDS011;51452;47.698;19.050;2022-07-29T09:33:59;4.82;;;2.88;;
64936;SDS011;51452;47.698;19.050;2022-07-29T09:36:25;6.63;;;2.65;;
64936;SDS011;51452;47.698;19.050;2022-07-29T09:38:57;4.80;;;2.83;;
64936;SDS011;51452;47.698;19.050;2022-07-29T09:41:24;7.68;;;2.65;;
64936;SDS011;51452;47.698;19.050;2022-07-29T09:43:57;4.22;;;2.72;;
64936;SDS011;51452;47.698;19.050;2022-07-29T09:46:23;6.32;;;2.65;;
64936;SDS011;51452;47.698;19.050;2022-07-29T09:49:08;7.07;;;2.83;;
64936;SDS011;51452;47.698;19.050;2022-07-29T09:51:34;6.07;;;2.90;;
64936;SDS011;51452;47.698;19.050;2022-07-29T09:54:00;9.10;;;3.03;;
64936;SDS011;51452;47.698;19.050;2022-07-29T09:56:41;5.10;;;2.95;;
64936;SDS011;51452;47.698;19.050;2022-07-29T09:59:07;4.05;;;2.67;;
64936;SDS011;51452;47.698;19.050;2022-07-29T10:01:34;5.88;;;2.80;;
64936;SDS011;51452;47.698;19.050;2022-07-29T10:04:00;4.90;;;2.60;;
64936;SDS011;51452;47.698;19.050;2022-07-29T10:06:26;7.47;;;2.60;;
64936;SDS011;51452;47.698;19.050;2022-07-29T10:08:52;5.93;;;2.85;;
64936;SDS011;51452;47.698;19.050;2022-07-29T10:11:18;4.32;;;2.42;;
64936;SDS011;51452;47.698;19.050;2022-07-29T10:13:45;13.23;;;4.22;;
64936;SDS011;51452;47.698;19.050;2022-07-29T10:16:12;6.35;;;2.60;;
64936;SDS011;51452;47.698;19.050;2022-07-29T10:18:39;12.52;;;2.70;;
64936;SDS011;51452;47.698;19.050;2022-07-29T10:21:06;5.15;;;2.75;;
64936;SDS011;51452;47.698;19.050;2022-07-29T10:23:32;6.53;;;2.88;;
64936;SDS011;51452;47.698;19.050;2022-07-29T10:25:59;6.88;;;2.58;;
64936;SDS011;51452;47.698;19.050;2022-07-29T10:28:25;7.25;;;2.45;;
64936;SDS011;51452;47.698;19.050;2022-07-29T10:30:51;10.75;;;3.00;;
64936;SDS011;51452;47.698;19.050;2022-07-29T10:42:18;6.40;;;2.50;;
64936;SDS011;51452;47.698;19.050;2022-07-29T10:44:45;7.97;;;3.00;;
64936;SDS011;51452;47.698;19.050;2022-07-29T10:47:21;3.40;;;2.55;;
64936;SDS011;51452;47.698;19.050;2022-07-29T10:50:00;3.28;;;2.30;;
64936;SDS011;51452;47.698;19.050;2022-07-29T10:55:36;4.68;;;2.88;;
64936;SDS011;51452;47.698;19.050;2022-07-29T10:58:16;3.70;;;2.78;;
64936;SDS011;51452;47.698;19.050;2022-07-29T11:00:47;4.60;;;2.60;;
64936;SDS011;51452;47.698;19.050;2022-07-29T11:06:11;5.80;;;2.92;;
64936;SDS011;51452;47.698;19.050;2022-07-29T11:08:37;4.15;;;2.55;;
64936;SDS011;51452;47.698;19.050;2022-07-29T11:11:30;6.97;;;2.92;;
64936;SDS011;51452;47.698;19.050;2022-07-29T11:13:56;5.88;;;2.55;;
64936;SDS011;51452;47.698;19.050;2022-07-29T11:16:21;4.10;;;2.30;;
64936;SDS011;51452;47.698;19.050;2022-07-29T11:21:39;4.25;;;2.88;;
64936;SDS011;51452;47.698;19.050;2022-07-29T11:26:46;7.10;;;2.60;;
64936;SDS011;51452;47.698;19.050;2022-07-29T11:32:16;6.60;;;2.50;;
64936;SDS011;51452;47.698;19.050;2022-07-29T11:34:44;5.72;;;2.70;;
64936;SDS011;51452;47.698;19.050;2022-07-29T11:39:40;3.95;;;2.65;;
64936;SDS011;51452;47.698;19.050;2022-07-29T11:47:36;6.13;;;2.33;;
64936;SDS011;51452;47.698;19.050;2022-07-29T11:50:05;4.78;;;2.35;;
64936;SDS011;51452;47.698;19.050;2022-07-29T11:52:36;9.98;;;2.30;;
64936;SDS011;51452;47.698;19.050;2022-07-29T11:55:11;5.00;;;2.65;;
64936;SDS011;51452;47.698;19.050;2022-07-29T12:00:35;5.57;;;2.33;;
64936;SDS011;51452;47.698;19.050;2022-07-29T12:03:05;7.00;;;2.38;;
64936;SDS011;51452;47.698;19.050;2022-07-29T12:05:40;8.90;;;2.22;;
64936;SDS011;51452;47.698;19.050;2022-07-29T12:10:33;5.00;;;2.25;;
64936;SDS011;51452;47.698;19.050;2022-07-29T12:12:58;5.25;;;2.22;;
64936;SDS011;51452;47.698;19.050;2022-07-29T12:15:24;3.85;;;2.20;;
64936;SDS011;51452;47.698;19.050;2022-07-29T12:17:51;6.20;;;2.35;;
64936;SDS011;51452;47.698;19.050;2022-07-29T12:20:23;5.95;;;2.63;;
64936;SDS011;51452;47.698;19.050;2022-07-29T12:22:55;4.70;;;2.40;;
64936;SDS011;51452;47.698;19.050;2022-07-29T12:25:22;9.90;;;2.65;;
64936;SDS011;51452;47.698;19.050;2022-07-29T12:28:02;4.68;;;2.17;;
64936;SDS011;51452;47.698;19.050;2022-07-29T12:30:43;3.05;;;2.20;;
64936;SDS011;51452;47.698;19.050;2022-07-29T12:33:16;4.75;;;2.40;;
64936;SDS011;51452;47.698;19.050;2022-07-29T12:36:01;23.90;;;2.35;;
64936;SDS011;51452;47.698;19.050;2022-07-29T12:38:28;3.83;;;2.30;;
64936;SDS011;51452;47.698;19.050;2022-07-29T12:40:54;9.02;;;2.50;;
64936;SDS011;51452;47.698;19.050;2022-07-29T12:43:23;5.70;;;2.40;;
64936;SDS011;51452;47.698;19.050;2022-07-29T12:45:50;6.40;;;2.30;;
64936;SDS011;51452;47.698;19.050;2022-07-29T12:48:22;11.20;;;2.17;;
64936;SDS011;51452;47.698;19.050;2022-07-29T12:51:04;3.22;;;2.03;;
64936;SDS011;51452;47.698;19.050;2022-07-29T12:53:32;5.07;;;2.30;;
64936;SDS011;51452;47.698;19.050;2022-07-29T12:55:58;5.82;;;2.10;;
64936;SDS011;51452;47.698;19.050;2022-07-29T12:58:27;2.88;;;2.30;;
64936;SDS011;51452;47.698;19.050;2022-07-29T13:01:26;3.35;;;2.22;;
64936;SDS011;51452;47.698;19.050;2022-07-29T13:03:49;3.33;;;1.90;;
64936;SDS011;51452;47.698;19.050;2022-07-29T13:09:14;5.97;;;2.28;;
64936;SDS011;51452;47.698;19.050;2022-07-29T13:14:10;3.80;;;1.95;;
64936;SDS011;51452;47.698;19.050;2022-07-29T13:16:59;4.28;;;2.28;;
64936;SDS011;51452;47.698;19.050;2022-07-29T13:22:37;2.88;;;2.00;;
64936;SDS011;51452;47.698;19.050;2022-07-29T13:25:02;3.30;;;2.20;;
64936;SDS011;51452;47.698;19.050;2022-07-29T13:27:29;2.80;;;2.00;;
64936;SDS011;51452;47.698;19.050;2022-07-29T13:29:57;3.97;;;2.30;;
64936;SDS011;51452;47.698;19.050;2022-07-29T13:32:24;3.30;;;2.30;;
64936;SDS011;51452;47.698;19.050;2022-07-29T13:34:51;3.35;;;2.15;;
64936;SDS011;51452;47.698;19.050;2022-07-29T13:37:18;3.15;;;2.35;;
64936;SDS011;51452;47.698;19.050;2022-07-29T13:39:44;3.92;;;2.20;;
64936;SDS011;51452;47.698;19.050;2022-07-29T13:42:10;3.10;;;1.88;;
64936;SDS011;51452;47.698;19.050;2022-07-29T13:44:38;4.53;;;2.17;;
64936;SDS011;51452;47.698;19.050;2022-07-29T13:47:03;9.90;;;2.60;;
64936;SDS011;51452;47.698;19.050;2022-07-29T13:49:29;4.45;;;2.47;;
64936;SDS011;51452;47.698;19.050;2022-07-29T13:51:55;7.15;;;2.30;;
64936;SDS011;51452;47.698;19.050;2022-07-29T13:54:20;6.80;;;2.00;;
64936;SDS011;51452;47.698;19.050;2022-07-29T13:56:45;11.95;;;2.30;;
64936;SDS011;51452;47.698;19.050;2022-07-29T13:59:11;4.75;;;2.13;;
64936;SDS011;51452;47.698;19.050;2022-07-29T14:01:37;4.20;;;2.50;;
64936;SDS011;51452;47.698;19.050;2022-07-29T14:04:03;3.60;;;1.92;;
64936;SDS011;51452;47.698;19.050;2022-07-29T14:06:29;4.57;;;2.47;;
64936;SDS011;51452;47.698;19.050;2022-07-29T14:08:54;5.93;;;2.30;;
64936;SDS011;51452;47.698;19.050;2022-07-29T14:11:20;3.30;;;2.00;;
64936;SDS011;51452;47.698;19.050;2022-07-29T14:13:45;5.03;;;2.50;;
64936;SDS011;51452;47.698;19.050;2022-07-29T14:16:10;3.70;;;2.55;;
64936;SDS011;51452;47.698;19.050;2022-07-29T14:18:36;12.63;;;2.55;;
64936;SDS011;51452;47.698;19.050;2022-07-29T14:21:01;7.43;;;2.38;;
64936;SDS011;51452;47.698;19.050;2022-07-29T14:23:27;4.47;;;2.33;;
64936;SDS011;51452;47.698;19.050;2022-07-29T14:25:52;6.70;;;2.50;;
64936;SDS011;51452;47.698;19.050;2022-07-29T14:28:18;6.80;;;2.78;;
64936;SDS011;51452;47.698;19.050;2022-07-29T14:30:43;9.02;;;2.38;;
64936;SDS011;51452;47.698;19.050;2022-07-29T14:33:09;4.97;;;2.45;;
64936;SDS011;51452;47.698;19.050;2022-07-29T14:35:34;5.25;;;2.50;;
64936;SDS011;51452;47.698;19.050;2022-07-29T14:37:59;8.20;;;2.30;;
64936;SDS011;51452;47.698;19.050;2022-07-29T14:40:25;5.90;;;2.45;;
64936;SDS011;51452;47.698;19.050;2022-07-29T14:42:50;5.00;;;2.33;;
64936;SDS011;51452;47.698;19.050;2022-07-29T14:45:16;6.05;;;2.80;;
64936;SDS011;51452;47.698;19.050;2022-07-29T14:47:41;5.28;;;2.58;;
64936;SDS011;51452;47.698;19.050;2022-07-29T14:50:07;4.20;;;2.88;;
64936;SDS011;51452;47.698;19.050;2022-07-29T14:52:32;6.10;;;3.08;;
64936;SDS011;51452;47.698;19.050;2022-07-29T14:54:58;9.00;;;3.05;;
64936;SDS011;51452;47.698;19.050;2022-07-29T14:57:24;6.15;;;2.85;;
64936;SDS011;51452;47.698;19.050;2022-07-29T14:59:50;4.60;;;2.50;;
64936;SDS011;51452;47.698;19.050;2022-07-29T15:02:15;6.35;;;2.80;;
64936;SDS011;51452;47.698;19.050;2022-07-29T15:04:41;4.57;;;2.40;;
64936;SDS011;51452;47.698;19.050;2022-07-29T15:07:06;4.75;;;2.83;;
64936;SDS011;51452;47.698;19.050;2022-07-29T15:09:31;6.35;;;2.42;;
64936;SDS011;51452;47.698;19.050;2022-07-29T15:11:57;4.90;;;2.35;;
64936;SDS011;51452;47.698;19.050;2022-07-29T15:14:22;5.15;;;3.00;;
64936;SDS011;51452;47.698;19.050;2022-07-29T15:16:48;10.43;;;2.60;;
64936;SDS011;51452;47.698;19.050;2022-07-29T15:19:13;3.53;;;2.60;;
64936;SDS011;51452;47.698;19.050;2022-07-29T15:21:38;3.00;;;2.30;;
64936;SDS011;51452;47.698;19.050;2022-07-29T15:24:04;4.82;;;2.42;;
64936;SDS011;51452;47.698;19.050;2022-07-29T15:26:29;5.95;;;2.42;;
64936;SDS011;51452;47.698;19.050;2022-07-29T15:28:55;8.15;;;2.75;;
64936;SDS011;51452;47.698;19.050;2022-07-29T15:31:21;3.10;;;2.03;;
64936;SDS011;51452;47.698;19.050;2022-07-29T15:33:46;5.18;;;2.30;;
64936;SDS011;51452;47.698;19.050;2022-07-29T15:36:12;5.50;;;2.42;;
64936;SDS011;51452;47.698;19.050;2022-07-29T15:38:38;2.47;;;2.22;;
64936;SDS011;51452;47.698;19.050;2022-07-29T15:41:05;3.20;;;2.50;;
64936;SDS011;51452;47.698;19.050;2022-07-29T15:43:31;4.53;;;2.40;;
64936;SDS011;51452;47.698;19.050;2022-07-29T15:45:56;4.55;;;2.47;;